Bookmark and Share
Track history (hours):
 

Odin Finder

Last reported at 2014-Mar-25 11:11 UTC. Time now 2014-Apr-24 06:29 UTC.
Position N 35°56' W 005°51'.
Warning: this ship's position is 29 days out of date.

Length 46 m; draft 5.1 m.

Type: Ship. MMSI: 247048200.

NotesDate/timePositionNaut miles runAvg speedWind from/ knotsBaromVisibWave heightAir tempDewpointWater temp
2014-Mar-25 11:11N 35°56' W 005°51'12 7.3
2014-Mar-25 09:33N 35°58' W 005°36'8 7.5
2014-Mar-25 08:33N 36°00' W 005°27'7 6.5
2014-Mar-25 07:33N 36°02' W 005°19'8 7.7
2014-Mar-25 06:33N 36°07' W 005°12'8 8.0
2014-Mar-25 05:33N 36°12' W 005°05'1 0.1
2014-Mar-24 16:59N 36°13' W 005°05'  
2014-Mar-22 07:32N 37°23' W 000°57'9 9.4
2014-Mar-22 06:33N 37°26' W 000°46'9 9.5
2014-Mar-22 05:33N 37°29' W 000°35'10 9.6
2014-Mar-22 04:33N 37°33' W 000°24'9 9.5
2014-Mar-22 03:34N 37°35' W 000°12'9 9.0
2014-Mar-22 02:33N 37°36' W 000°01'9 9.3
2014-Mar-22 01:33N 37°36' E 000°11'9 9.2
2014-Mar-22 00:33N 37°37' E 000°22'9 9.1
2014-Mar-21 23:33N 37°37' E 000°34'13 9.3
2014-Mar-21 22:11N 37°38' E 000°50'6 9.2
2014-Mar-21 21:33N 37°38' E 000°57'9 9.4
2014-Mar-21 20:33N 37°39' E 001°09'1010.0
2014-Mar-21 19:33N 37°39' E 001°22'362 9.5
2014-Mar-20 05:16N 37°42' E 008°59'7 9.4
2014-Mar-20 04:33N 37°42' E 009°08'11 9.5
2014-Mar-20 03:22N 37°41' E 009°22'8 9.4
2014-Mar-20 02:30N 37°41' E 009°32'9 9.2
2014-Mar-20 01:29N 37°40' E 009°44'64 9.3
2014-Mar-19 18:33N 37°28' E 011°04'1010.0
2014-Mar-19 17:33N 37°24' E 011°15'122 9.4
2014-Mar-19 04:33N 36°53' E 013°44'9 9.2
2014-Mar-19 03:33N 36°51' E 013°55'9 9.2
2014-Mar-19 02:33N 36°48' E 014°06'9 9.2
2014-Mar-19 01:33N 36°46' E 014°17'9 9.3
2014-Mar-19 00:33N 36°44' E 014°28'9 8.5
2014-Mar-18 23:33N 36°41' E 014°39'8 8.2
2014-Mar-18 22:33N 36°39' E 014°49'9 8.8
2014-Mar-18 21:33N 36°37' E 014°59'  

Dump ship's entire track history

sailing weather and tide predictions

Odin Finder — IZER — position and weather